^^

New Milford Station Historical Data

 
Daily Summary for July 23, 2019 Units:  English    Metric   Both
Daily Weekly Monthly Yearly Custom
  Current: High: Low: Average:
Temperature: 70.1 °F 75.4 °F 63.7 °F 67.9 °F
Dew Point: 66.3 °F 69 °F 63.7 °F 66 °F
Humidity: 88% 100% 75% 94%
Wind Speed: 0mph 5mph 0mph 0.2mph
Wind Gust: 0mph 10mph - -
WindCalm - - ENE
Pressure: 29.86 in 29.86 in 29.71 in -
Precipitation: 0.93 in      
Historical Graphs
 
 
Tabular Data for July 23, 2019
Time Temperature Dew Point Pressure Wind Wind Speed Wind Gust Humidity Rainfall Rate (Hourly) solar
00:00 67.4 °F 67.4 °F 29.73 in Calm     100% 0 in WeatherDisplay:10.37 W/m2
00:05 67.4 °F 67.4 °F 29.73 in Calm     100% 0 in WeatherDisplay:10.37 W/m2
00:10 67.4 °F 67.4 °F 29.73 in Calm     100% 0 in WeatherDisplay:10.37 W/m2
00:15 67.4 °F 67.4 °F 29.73 in Calm     100% 0 in WeatherDisplay:10.37 W/m2
00:20 67.5 °F 67.5 °F 29.73 in Calm     100% 0 in WeatherDisplay:10.37 W/m2
00:25 67.5 °F 67.5 °F 29.74 in Calm     100% 0 in WeatherDisplay:10.37 W/m2
00:30 67.4 °F 67.4 °F 29.74 in Calm     100% 0 in WeatherDisplay:10.37 W/m2
00:35 67.7 °F 67.7 °F 29.74 in Calm     100% 0.01 in WeatherDisplay:10.37 W/m2
00:40 67.4 °F 67.4 °F 29.74 in Calm     100% 0.01 in WeatherDisplay:10.37 W/m2
00:45 67.4 °F 67.4 °F 29.74 in Calm     100% 0.02 in WeatherDisplay:10.37 W/m2
00:50 67.2 °F 67.2 °F 29.74 in Calm     100% 0.02 in WeatherDisplay:10.37 W/m2
00:55 67.2 °F 67.2 °F 29.74 in Calm     100% 0.02 in WeatherDisplay:10.37 W/m2
01:00 67.2 °F 67.2 °F 29.74 in Calm     100% 0.01 in WeatherDisplay:10.37 W/m2
01:05 67.1 °F 67.1 °F 29.74 in Calm     100% 0.01 in WeatherDisplay:10.37 W/m2
01:10 67.1 °F 67.1 °F 29.74 in Calm     100% 0.02 in WeatherDisplay:10.37 W/m2
01:15 67 °F 67 °F 29.74 in Calm     100% 0.01 in WeatherDisplay:10.37 W/m2
01:20 66.9 °F 66.9 °F 29.73 in Calm     100% 0 in WeatherDisplay:10.37 W/m2
01:25 67.1 °F 67.1 °F 29.73 in Calm     100% 0.01 in WeatherDisplay:10.37 W/m2
01:30 67.2 °F 67.2 °F 29.73 in Calm     100% 0 in WeatherDisplay:10.37 W/m2
01:35 67.2 °F 67.2 °F 29.73 in Calm     100% 0 in WeatherDisplay:10.37 W/m2
01:40 67.2 °F 67.2 °F 29.73 in Calm     100% 0 in WeatherDisplay:10.37 W/m2
01:45 67 °F 67 °F 29.73 in Calm     100% 0.01 in WeatherDisplay:10.37 W/m2
01:50 66.9 °F 66.9 °F 29.72 in Calm     100% 0 in WeatherDisplay:10.37 W/m2
01:55 66.7 °F 66.7 °F 29.71 in Calm     100% 0 in WeatherDisplay:10.37 W/m2
02:00 66.6 °F 66.6 °F 29.71 in Calm     100% 0.01 in WeatherDisplay:10.37 W/m2
02:05 66.7 °F 66.7 °F 29.72 in Calm     100% 0 in WeatherDisplay:10.37 W/m2
02:10 66.6 °F 66.6 °F 29.71 in Calm     100% 0 in WeatherDisplay:10.37 W/m2
02:15 66.4 °F 66.4 °F 29.72 in Calm     100% 0 in WeatherDisplay:10.37 W/m2
02:20 66.4 °F 66.4 °F 29.72 in Calm     100% 0 in WeatherDisplay:10.37 W/m2
02:25 66.4 °F 66.4 °F 29.73 in Calm     100% 0 in WeatherDisplay:10.37 W/m2
02:30 66.4 °F 66.4 °F 29.73 in Calm     100% 0 in WeatherDisplay:10.37 W/m2
02:35 66.3 °F 66.3 °F 29.73 in Calm     100% 0 in WeatherDisplay:10.37 W/m2
02:40 66.3 °F 66.3 °F 29.73 in Calm     100% 0 in WeatherDisplay:10.37 W/m2
02:45 66.3 °F 66.3 °F 29.72 in Calm     100% 0 in WeatherDisplay:10.37 W/m2
02:50 66.3 °F 66.3 °F 29.72 in Calm     100% 0 in WeatherDisplay:10.37 W/m2
02:55 66.3 °F 66.3 °F 29.72 in Calm     100% 0 in WeatherDisplay:10.37 W/m2
03:00 66.1 °F 66.1 °F 29.72 in Calm     100% 0 in WeatherDisplay:10.37 W/m2
03:05 66.1 °F 66.1 °F 29.72 in Calm     100% 0 in WeatherDisplay:10.37 W/m2
03:10 66 °F 66 °F 29.71 in Calm     100% 0 in WeatherDisplay:10.37 W/m2
03:15 65.9 °F 65.9 °F 29.72 in Calm     100% 0 in WeatherDisplay:10.37 W/m2
03:20 65.6 °F 65.6 °F 29.72 in Calm     100% 0.01 in WeatherDisplay:10.37 W/m2
03:25 65.5 °F 65.5 °F 29.72 in Calm     100% 0.01 in WeatherDisplay:10.37 W/m2
03:30 65.3 °F 65.3 °F 29.73 in Calm   5 mph 100% 0.01 in WeatherDisplay:10.37 W/m2
03:35 65.2 °F 65.2 °F 29.73 in Calm   5 mph 100% 0.05 in WeatherDisplay:10.37 W/m2
03:40 65.1 °F 65.1 °F 29.73 in Calm   1 mph 100% 0.02 in WeatherDisplay:10.37 W/m2
03:45 65 °F 65 °F 29.73 in Calm     100% 0.05 in WeatherDisplay:10.37 W/m2
03:50 64.9 °F 64.9 °F 29.73 in Calm     100% 0.02 in WeatherDisplay:10.37 W/m2
03:55 64.8 °F 64.8 °F 29.73 in Calm     100% 0.02 in WeatherDisplay:10.37 W/m2
04:00 64.8 °F 64.8 °F 29.73 in Calm     100% 0.01 in WeatherDisplay:10.37 W/m2
04:05 64.8 °F 64.8 °F 29.73 in Calm     100% 0.01 in WeatherDisplay:10.37 W/m2
04:10 64.8 °F 64.8 °F 29.73 in Calm     100% 0 in WeatherDisplay:10.37 W/m2
04:15 64.7 °F 64.7 °F 29.73 in Calm   1 mph 100% 0.01 in WeatherDisplay:10.37 W/m2
04:20 64.7 °F 64.7 °F 29.73 in Calm     100% 0.05 in WeatherDisplay:10.37 W/m2
04:25 64.7 °F 64.7 °F 29.74 in Calm     100% 0.03 in WeatherDisplay:10.37 W/m2
04:30 64.7 °F 64.7 °F 29.73 in Calm     100% 0.04 in WeatherDisplay:10.37 W/m2
04:35 64.7 °F 64.7 °F 29.74 in Calm     100% 0.03 in WeatherDisplay:10.37 W/m2
04:40 64.7 °F 64.7 °F 29.74 in Calm     100% 0.04 in WeatherDisplay:10.37 W/m2
04:45 64.6 °F 64.6 °F 29.73 in Calm     100% 0.04 in WeatherDisplay:10.37 W/m2
04:50 64.6 °F 64.6 °F 29.73 in Calm     100% 0.01 in WeatherDisplay:10.37 W/m2
04:55 64.6 °F 64.6 °F 29.73 in Calm     100% 0 in WeatherDisplay:10.37 W/m2
05:00 64.7 °F 64.7 °F 29.73 in Calm     100% 0.02 in WeatherDisplay:10.37 W/m2
05:05 64.7 °F 64.7 °F 29.73 in Calm     100% 0.02 in WeatherDisplay:10.37 W/m2
05:10 64.6 °F 64.6 °F 29.73 in Calm     100% 0.02 in WeatherDisplay:10.37 W/m2
05:15 64.5 °F 64.5 °F 29.73 in Calm   2 mph 100% 0.03 in WeatherDisplay:10.37 W/m2
05:20 64.4 °F 64.4 °F 29.73 in Calm   2 mph 100% 0.04 in WeatherDisplay:10.37 W/m2
05:25 64.3 °F 64.3 °F 29.72 in Calm     100% 0.02 in WeatherDisplay:10.37 W/m2
05:30 64.3 °F 64.3 °F 29.73 in Calm     100% 0 in WeatherDisplay:10.37 W/m2
05:35 64.2 °F 64.2 °F 29.73 in Calm     100% 0 in WeatherDisplay:10.37 W/m2
05:40 64.1 °F 64.1 °F 29.73 in Calm     100% 0 in WeatherDisplay:10.37 W/m2
05:45 64.1 °F 64.1 °F 29.73 in Calm     100% 0 in WeatherDisplay:10.37 W/m2
05:50 64 °F 64 °F 29.73 in Calm     100% 0 in WeatherDisplay:10.37 W/m2
05:55 64 °F 64 °F 29.73 in Calm     100% 0.01 in WeatherDisplay:10.37 W/m2
06:00 64.1 °F 64.1 °F 29.73 in Calm     100% 0.01 in WeatherDisplay:10.37 W/m2
06:05 64 °F 64 °F 29.73 in Calm     100% 0.02 in WeatherDisplay:10.37 W/m2
06:10 64 °F 64 °F 29.73 in Calm     100% 0.01 in WeatherDisplay:10.37 W/m2
06:15 63.9 °F 63.9 °F 29.73 in Calm     100% 0.02 in WeatherDisplay:10.37 W/m2
06:20 63.7 °F 63.7 °F 29.73 in Calm   5 mph 100% 0.01 in WeatherDisplay:10.37 W/m2
06:25 63.8 °F 63.8 °F 29.73 in NNE 1 mph 5 mph 100% 0 in WeatherDisplay:10.37 W/m2
06:30 63.8 °F 63.8 °F 29.73 in East 2 mph 4 mph 100% 0 in WeatherDisplay:10.37 W/m2
06:35 63.8 °F 63.8 °F 29.73 in Calm   3 mph 100% 0 in WeatherDisplay:10.37 W/m2
06:40 63.8 °F 63.9 °F 29.73 in NNE 1 mph 3 mph 100% 0.01 in WeatherDisplay:10.37 W/m2
06:45 63.7 °F 63.7 °F 29.73 in Calm   3 mph 100% 0 in WeatherDisplay:10.37 W/m2
06:50 63.7 °F 63.7 °F 29.73 in Calm     100% 0 in WeatherDisplay:10.37 W/m2
06:55 63.8 °F 63.8 °F 29.74 in NNE 2 mph 6 mph 100% 0 in WeatherDisplay:10.37 W/m2
07:00 63.9 °F 63.9 °F 29.74 in Calm   2 mph 100% 0.01 in WeatherDisplay:10.37 W/m2
07:05 63.9 °F 63.9 °F 29.74 in Calm     100% 0 in WeatherDisplay:10.37 W/m2
07:10 64 °F 64 °F 29.74 in Calm     100% 0 in WeatherDisplay:10.37 W/m2
07:15 64 °F 64 °F 29.74 in Calm   2 mph 100% 0.01 in WeatherDisplay:10.37 W/m2
07:20 64 °F 64 °F 29.73 in Calm     100% 0.01 in WeatherDisplay:10.37 W/m2
07:25 64.1 °F 64.1 °F 29.73 in Calm   1 mph 100% 0 in WeatherDisplay:10.37 W/m2
07:30 64.1 °F 64.1 °F 29.73 in Calm   1 mph 100% 0.01 in WeatherDisplay:10.37 W/m2
07:35 64.2 °F 64.2 °F 29.73 in Calm     100% 0 in WeatherDisplay:10.37 W/m2
07:40 64.3 °F 64.3 °F 29.73 in Calm     100% 0 in WeatherDisplay:10.37 W/m2
07:45 64.6 °F 64.6 °F 29.74 in Calm     100% 0.01 in WeatherDisplay:10.37 W/m2
07:50 64.7 °F 64.7 °F 29.74 in Calm     100% 0 in WeatherDisplay:10.37 W/m2
07:55 64.8 °F 64.8 °F 29.74 in Calm     100% 0.01 in WeatherDisplay:10.37 W/m2
08:00 64.7 °F 64.7 °F 29.74 in Calm     100% 0 in WeatherDisplay:10.37 W/m2
08:05 64.6 °F 64.6 °F 29.75 in Calm   3 mph 100% 0 in WeatherDisplay:10.37 W/m2
08:10 64.5 °F 64.5 °F 29.75 in Calm   3 mph 100% 0 in WeatherDisplay:10.37 W/m2
08:15 64.5 °F 64.5 °F 29.75 in Calm     100% 0 in WeatherDisplay:10.37 W/m2
08:20 64.6 °F 64.6 °F 29.75 in Calm     100% 0 in WeatherDisplay:10.37 W/m2
08:25 64.7 °F 64.7 °F 29.75 in Calm     100% 0.01 in WeatherDisplay:10.37 W/m2
08:30 64.8 °F 64.8 °F 29.75 in Calm     100% 0 in WeatherDisplay:10.37 W/m2
08:35 65 °F 65 °F 29.75 in Calm     100% 0 in WeatherDisplay:10.37 W/m2
08:40 65.3 °F 65.3 °F 29.75 in Calm     100% 0 in WeatherDisplay:10.37 W/m2
08:45 65.5 °F 65.5 °F 29.75 in Calm     100% 0 in WeatherDisplay:10.37 W/m2
08:50 65.5 °F 65.5 °F 29.75 in Calm     100% 0 in WeatherDisplay:10.37 W/m2
08:55 65.5 °F 65.5 °F 29.75 in Calm     100% 0 in WeatherDisplay:10.37 W/m2
09:00 65.5 °F 65.5 °F 29.75 in North 1 mph 4 mph 100% 0 in WeatherDisplay:10.37 W/m2
09:05 65.4 °F 65.4 °F 29.75 in NNE 1 mph 5 mph 100% 0 in WeatherDisplay:10.37 W/m2
09:10 65.3 °F 65.3 °F 29.76 in Calm   5 mph 100% 0 in WeatherDisplay:10.37 W/m2
09:15 65.4 °F 65.4 °F 29.76 in North 1 mph 5 mph 100% 0 in WeatherDisplay:10.37 W/m2
09:20 65.5 °F 65.5 °F 29.76 in Calm   3 mph 100% 0 in WeatherDisplay:10.37 W/m2
09:25 65.5 °F 65.5 °F 29.75 in Calm     100% 0 in WeatherDisplay:10.37 W/m2
09:30 65.7 °F 65.7 °F 29.76 in Calm     100% 0 in WeatherDisplay:10.37 W/m2
09:35 65.6 °F 65.6 °F 29.76 in Calm     100% 0 in WeatherDisplay:10.37 W/m2
09:40 65.8 °F 65.8 °F 29.75 in Calm     100% 0 in WeatherDisplay:10.37 W/m2
09:45 66 °F 66 °F 29.76 in Calm     100% 0 in WeatherDisplay:10.37 W/m2
09:50 66.3 °F 66.3 °F 29.77 in Calm     100% 0 in WeatherDisplay:10.37 W/m2
09:55 66.3 °F 66.3 °F 29.77 in Calm     100% 0 in WeatherDisplay:10.37 W/m2
10:00 66.4 °F 66.4 °F 29.77 in Calm   2 mph 100% 0 in WeatherDisplay:10.37 W/m2
10:05 66.3 °F 66.3 °F 29.77 in Calm     100% 0 in WeatherDisplay:10.37 W/m2
10:10 66.1 °F 66.1 °F 29.78 in Calm     100% 0 in WeatherDisplay:10.37 W/m2
10:15 66.2 °F 66.2 °F 29.78 in Calm     100% 0 in WeatherDisplay:10.37 W/m2
10:20 66.3 °F 66.3 °F 29.79 in Calm     100% 0 in WeatherDisplay:10.37 W/m2
10:25 66.5 °F 66.5 °F 29.79 in Calm     100% 0 in WeatherDisplay:10.37 W/m2
10:30 66.4 °F 66.4 °F 29.79 in Calm     100% 0 in WeatherDisplay:10.37 W/m2
10:35 66.4 °F 66.4 °F 29.79 in Calm     100% 0 in WeatherDisplay:10.37 W/m2
10:40 66.4 °F 66.4 °F 29.80 in Calm     100% 0 in WeatherDisplay:10.37 W/m2
10:45 66.3 °F 66.3 °F 29.80 in Calm     100% 0 in WeatherDisplay:10.37 W/m2
10:50 66.3 °F 66.3 °F 29.79 in Calm     100% 0 in WeatherDisplay:10.37 W/m2
10:55 66.3 °F 66.3 °F 29.79 in Calm     100% 0 in WeatherDisplay:10.37 W/m2
11:00 66.3 °F 66.3 °F 29.79 in Calm     100% 0 in WeatherDisplay:10.37 W/m2
11:05 66.5 °F 66.5 °F 29.79 in Calm     100% 0 in WeatherDisplay:10.37 W/m2
11:10 66.7 °F 66.7 °F 29.79 in Calm     100% 0 in WeatherDisplay:10.37 W/m2
11:15 67 °F 67 °F 29.79 in Calm     100% 0 in WeatherDisplay:10.37 W/m2
11:20 67.3 °F 67 °F 29.80 in Calm     99% 0 in WeatherDisplay:10.37 W/m2
11:25 67.7 °F 67.4 °F 29.80 in Calm   3 mph 99% 0 in WeatherDisplay:10.37 W/m2
11:30 68 °F 67.7 °F 29.80 in Calm   5 mph 99% 0 in WeatherDisplay:10.37 W/m2
11:35 68.1 °F 67.3 °F 29.80 in Calm   5 mph 97% 0 in WeatherDisplay:10.37 W/m2
11:40 68.4 °F 66.9 °F 29.80 in NNE 1 mph 5 mph 95% 0 in WeatherDisplay:10.37 W/m2
11:45 68.5 °F 66.7 °F 29.80 in NNE 3 mph 6 mph 94% 0 in WeatherDisplay:10.37 W/m2
11:50 68.7 °F 66.6 °F 29.80 in NE 1 mph 3 mph 93% 0 in WeatherDisplay:10.37 W/m2
11:55 69 °F 67.2 °F 29.80 in Calm     94% 0 in WeatherDisplay:10.37 W/m2
12:00 69.4 °F 66.9 °F 29.80 in Calm   6 mph 92% 0 in WeatherDisplay:10.37 W/m2
12:05 69.6 °F 66.5 °F 29.80 in Calm   5 mph 90% 0 in WeatherDisplay:10.37 W/m2
12:10 69.6 °F 66.5 °F 29.80 in NNE 1 mph 3 mph 90% 0 in WeatherDisplay:10.37 W/m2
12:15 69.5 °F 66.1 °F 29.80 in NE 1 mph 6 mph 89% 0 in WeatherDisplay:10.37 W/m2
12:20 69.4 °F 66.3 °F 29.80 in Calm   6 mph 90% 0 in WeatherDisplay:10.37 W/m2
12:25 69.9 °F 66.5 °F 29.80 in NE 5 mph 10 mph 89% 0 in WeatherDisplay:10.37 W/m2
12:30 70.1 °F 66 °F 29.79 in NE 2 mph 10 mph 87% 0 in WeatherDisplay:10.37 W/m2
12:35 70.4 °F 66 °F 29.79 in NNE 2 mph 6 mph 86% 0 in WeatherDisplay:10.37 W/m2
12:40 70.3 °F 66.2 °F 29.79 in NNE 2 mph 6 mph 87% 0 in WeatherDisplay:10.37 W/m2
12:45 71 °F 66.6 °F 29.79 in Calm   5 mph 86% 0 in WeatherDisplay:10.37 W/m2
12:50 71.9 °F 67.1 °F 29.79 in NE 1 mph 4 mph 85% 0 in WeatherDisplay:10.37 W/m2
12:55 71.8 °F 66 °F 29.79 in Calm   6 mph 82% 0 in WeatherDisplay:10.37 W/m2
13:00 71.4 °F 66 °F 29.80 in NE 2 mph 6 mph 83% 0 in WeatherDisplay:10.37 W/m2
13:05 70.5 °F 65.8 °F 29.80 in NE 2 mph 5 mph 85% 0 in WeatherDisplay:10.37 W/m2
13:10 69.8 °F 65.4 °F 29.80 in Calm   2 mph 86% 0 in WeatherDisplay:10.37 W/m2
13:15 69.6 °F 65.9 °F 29.79 in Calm     88% 0 in WeatherDisplay:10.37 W/m2
13:20 70.2 °F 66.2 °F 29.80 in Calm   3 mph 87% 0 in WeatherDisplay:10.37 W/m2
13:25 70.5 °F 66.1 °F 29.80 in NE 3 mph 5 mph 86% 0 in WeatherDisplay:10.37 W/m2
13:30 69.9 °F 65.5 °F 29.80 in NNE 2 mph 7 mph 86% 0 in WeatherDisplay:10.37 W/m2
13:35 69.5 °F 65.5 °F 29.80 in Calm   3 mph 87% 0 in WeatherDisplay:10.37 W/m2
13:40 69.4 °F 65.7 °F 29.81 in NE 1 mph 5 mph 88% 0 in WeatherDisplay:10.37 W/m2
13:45 69.6 °F 65.5 °F 29.81 in NNE 1 mph 5 mph 87% 0 in WeatherDisplay:10.37 W/m2
13:50 70.1 °F 66.1 °F 29.81 in Calm   2 mph 87% 0 in WeatherDisplay:10.37 W/m2
13:55 70.5 °F 65.8 °F 29.81 in Calm   4 mph 85% 0 in WeatherDisplay:10.37 W/m2
14:00 70.8 °F 66 °F 29.81 in Calm   5 mph 85% 0 in WeatherDisplay:10.37 W/m2
14:05 70.9 °F 66.1 °F 29.81 in East 1 mph 4 mph 85% 0 in WeatherDisplay:10.37 W/m2
14:10 70.7 °F 64.9 °F 29.81 in East 3 mph 5 mph 82% 0 in WeatherDisplay:10.37 W/m2
14:15 70.8 °F 65.7 °F 29.81 in Calm   3 mph 84% 0 in WeatherDisplay:10.37 W/m2
14:20 70.9 °F 65.8 °F 29.81 in Calm   4 mph 84% 0 in WeatherDisplay:10.37 W/m2
14:25 71 °F 65.9 °F 29.81 in Calm   1 mph 84% 0 in WeatherDisplay:10.37 W/m2
14:30 71.2 °F 66.5 °F 29.82 in Calm     85% 0 in WeatherDisplay:10.37 W/m2
14:35 71.2 °F 66.1 °F 29.81 in Calm   5 mph 84% 0 in WeatherDisplay:10.37 W/m2
14:40 71.2 °F 65.8 °F 29.81 in NNE 2 mph 5 mph 83% 0 in WeatherDisplay:10.37 W/m2
14:45 71.1 °F 66 °F 29.82 in NNE 2 mph 5 mph 84% 0 in WeatherDisplay:10.37 W/m2
14:50 71.5 °F 66.1 °F 29.82 in Calm   4 mph 83% 0 in WeatherDisplay:10.37 W/m2
14:55 72.6 °F 66.8 °F 29.82 in Calm   3 mph 82% 0 in WeatherDisplay:10.37 W/m2
15:00 72.9 °F 66.7 °F 29.82 in South 1 mph 3 mph 81% 0 in WeatherDisplay:10.37 W/m2
15:05 72.6 °F 66.4 °F 29.82 in Calm   3 mph 81% 0 in WeatherDisplay:10.37 W/m2
15:10 72.5 °F 67.4 °F 29.82 in Calm     84% 0 in WeatherDisplay:10.37 W/m2
15:15 72.4 °F 67.3 °F 29.82 in Calm     84% 0 in WeatherDisplay:10.37 W/m2
15:20 72.3 °F 66.8 °F 29.82 in Calm     83% 0 in WeatherDisplay:10.37 W/m2
15:25 72.2 °F 65.7 °F 29.82 in Calm     80% 0 in WeatherDisplay:10.37 W/m2
15:30 72.2 °F 65 °F 29.82 in Calm     78% 0 in WeatherDisplay:10.37 W/m2
15:35 72.3 °F 65.4 °F 29.82 in Calm     79% 0 in WeatherDisplay:10.37 W/m2
15:40 72.2 °F 67.1 °F 29.83 in Calm     84% 0 in WeatherDisplay:10.37 W/m2
15:45 71.7 °F 64.8 °F 29.83 in Calm   1 mph 79% 0 in WeatherDisplay:10.37 W/m2
15:50 71.6 °F 65.8 °F 29.83 in Calm     82% 0 in WeatherDisplay:10.37 W/m2
15:55 71.5 °F 66.8 °F 29.83 in Calm     85% 0 in WeatherDisplay:10.37 W/m2
16:00 71.5 °F 67.1 °F 29.83 in Calm     86% 0 in WeatherDisplay:10.37 W/m2
16:05 71.5 °F 67.1 °F 29.83 in Calm     86% 0 in WeatherDisplay:10.37 W/m2
16:10 71.7 °F 67.9 °F 29.83 in Calm     88% 0 in WeatherDisplay:10.37 W/m2
16:15 72 °F 67.6 °F 29.83 in Calm     86% 0 in WeatherDisplay:10.37 W/m2
16:20 72.6 °F 68.5 °F 29.83 in Calm     87% 0 in WeatherDisplay:10.37 W/m2
16:25 72.9 °F 68.8 °F 29.83 in Calm     87% 0 in WeatherDisplay:10.37 W/m2
16:30 73.1 °F 69 °F 29.83 in Calm     87% 0 in WeatherDisplay:10.37 W/m2
16:35 73.4 °F 68.3 °F 29.83 in Calm     84% 0 in WeatherDisplay:10.37 W/m2
16:40 73.9 °F 67.3 °F 29.83 in Calm     80% 0 in WeatherDisplay:10.37 W/m2
16:45 74.1 °F 68.6 °F 29.83 in Calm     83% 0 in WeatherDisplay:10.37 W/m2
16:50 73.9 °F 68.8 °F 29.83 in Calm     84% 0 in WeatherDisplay:10.37 W/m2
16:55 74.3 °F 68.4 °F 29.83 in Calm     82% 0 in WeatherDisplay:10.37 W/m2
17:00 74.6 °F 68.4 °F 29.84 in Calm     81% 0 in WeatherDisplay:10.37 W/m2
17:05 74.7 °F 68.5 °F 29.84 in Calm     81% 0 in WeatherDisplay:10.37 W/m2
17:10 74.9 °F 68.7 °F 29.84 in Calm     81% 0 in WeatherDisplay:10.37 W/m2
17:15 75.3 °F 68.7 °F 29.84 in Calm     80% 0 in WeatherDisplay:10.37 W/m2
17:20 75.4 °F 68.8 °F 29.84 in WSW 1 mph 3 mph 80% 0 in WeatherDisplay:10.37 W/m2
17:25 75.2 °F 68.3 °F 29.83 in Calm   2 mph 79% 0 in WeatherDisplay:10.37 W/m2
17:30 75.2 °F 66.8 °F 29.83 in West 2 mph 3 mph 75% 0 in WeatherDisplay:10.37 W/m2
17:35 74.8 °F 67.5 °F 29.84 in Calm   1 mph 78% 0 in WeatherDisplay:10.37 W/m2
17:40 74.4 °F 67.4 °F 29.84 in Calm   1 mph 79% 0 in WeatherDisplay:10.37 W/m2
17:45 73.9 °F 68.1 °F 29.83 in Calm   2 mph 82% 0 in WeatherDisplay:10.37 W/m2
17:50 73.4 °F 67.6 °F 29.83 in Calm     82% 0 in WeatherDisplay:10.37 W/m2
17:55 72.7 °F 67.2 °F 29.83 in Calm     83% 0 in WeatherDisplay:10.37 W/m2
18:00 72.2 °F 66.7 °F 29.83 in Calm     83% 0 in WeatherDisplay:10.37 W/m2
18:05 71.9 °F 66.8 °F 29.84 in Calm     84% 0 in WeatherDisplay:10.37 W/m2
18:10 71.6 °F 66.5 °F 29.84 in Calm     84% 0 in WeatherDisplay:10.37 W/m2
18:15 71.4 °F 66.7 °F 29.84 in West 2 mph 3 mph 85% 0 in WeatherDisplay:10.37 W/m2
18:20 71.1 °F 66.7 °F 29.84 in Calm   2 mph 86% 0 in WeatherDisplay:10.37 W/m2
18:25 70.9 °F 66.5 °F 29.84 in Calm     86% 0 in WeatherDisplay:10.37 W/m2
18:30 70.7 °F 66.6 °F 29.84 in Calm   1 mph 87% 0 in WeatherDisplay:10.37 W/m2
18:35 70.5 °F 66.4 °F 29.84 in Calm   3 mph 87% 0 in WeatherDisplay:10.37 W/m2
18:40 70.3 °F 66.3 °F 29.85 in Calm     87% 0 in WeatherDisplay:10.37 W/m2
18:45 70.2 °F 66.1 °F 29.85 in Calm     87% 0 in WeatherDisplay:10.37 W/m2
18:50 70.1 °F 66.3 °F 29.86 in Calm     88% 0 in WeatherDisplay:10.37 W/m2
Compliments of Weather Underground - 2 mb